Terminal Aerodrome Forecast
Issued by NWS Blacksburg, VA

Home | Current Version | Previous Version | Text Only | Print | Product List | Glossary On
Versions: 1 2 3 4 5 6 7 8 9 10 11 12 13 14 15
000
FTUS41 KRNK 230520
TAFDAN
TAF
KDAN 230520Z 2306/2406 23005KT P6SM FEW050
     FM231900 24005KT P6SM VCTS SCT050CB BKN090
     FM240100 VRB03KT P6SM SCT080 BKN150=

USA.gov is the U.S. government's official web portal to all federal, state and local government web resources and services.